Time;durP1;ratioP1;P1;durP2;ratioP2;P2;SDS_P1;SDS_P2;PMS_P1;PMS_P2;Temp;Humidity;BMP_temperature;BMP_pressure;BME280_temperature;BME280_humidity;BME280_pressure;Samples;Min_cycle;Max_cycle;Signal;HPM_P1;HPM_P2
2021/04/16 00:01:22;;;;;;;0.50;0.50;;;4.20;91.60;;;;;;5006016;28;21085;-89
2021/04/16 00:03:48;;;;;;;0.30;0.30;;;4.10;92.10;;;;;;4999967;28;20469;-89
2021/04/16 00:06:14;;;;;;;0.40;0.40;;;4.10;92.10;;;;;;5010377;28;20022;-90
2021/04/16 00:08:40;;;;;;;1.25;1.17;;;4.30;91.80;;;;;;4999376;28;20615;-90
2021/04/16 00:11:15;;;;;;;0.20;0.20;;;4.10;92.20;;;;;;4999531;28;20091;-89
2021/04/16 00:13:41;;;;;;;0.10;0.10;;;3.90;92.70;;;;;;5009548;28;20036;-89
2021/04/16 00:16:10;;;;;;;0.10;0.10;;;4.10;92.40;;;;;;4993916;28;20038;-90
2021/04/16 00:18:36;;;;;;;0.55;0.55;;;4.10;92.60;;;;;;4989013;28;20033;-91
2021/04/16 00:21:03;;;;;;;8.98;1.63;;;4.00;92.70;;;;;;5016623;28;20072;-91
2021/04/16 00:23:29;;;;;;;0.10;0.10;;;3.90;92.60;;;;;;5008011;28;20057;-90
2021/04/16 00:25:56;;;;;;;0.20;0.20;;;4.10;92.70;;;;;;5002183;28;20045;-90
2021/04/16 00:28:22;;;;;;;0.20;0.20;;;3.90;93.30;;;;;;5003662;28;20089;-90
2021/04/16 00:30:54;;;;;;;0.10;0.10;;;3.80;93.50;;;;;;5002635;28;20038;-91
2021/04/16 00:33:20;;;;;;;0.35;0.35;;;3.80;93.20;;;;;;4999577;28;20460;-90
2021/04/16 00:35:46;;;;;;;0.10;0.10;;;3.90;93.20;;;;;;5003287;28;20030;-89
2021/04/16 00:38:13;;;;;;;0.20;0.20;;;3.80;93.30;;;;;;4991343;28;20510;-89
2021/04/16 00:40:41;;;;;;;;;;;3.90;93.50;;;;;;5001293;28;20045;-89
2021/04/16 00:43:07;;;;;;;0.10;0.10;;;3.80;93.90;;;;;;4998078;28;19909;-89
2021/04/16 00:45:35;;;;;;;0.13;0.13;;;3.90;93.60;;;;;;4994011;28;20029;-89
2021/04/16 00:48:03;;;;;;;0.10;0.10;;;3.80;93.90;;;;;;4994096;28;20038;-89
2021/04/16 00:50:39;;;;;;;1.35;0.68;;;3.60;94.00;;;;;;5003488;28;20857;-90
2021/04/16 00:53:05;;;;;;;0.20;0.20;;;3.70;94.40;;;;;;4997625;28;20034;-88
2021/04/16 00:55:30;;;;;;;0.10;0.10;;;3.70;94.30;;;;;;5001831;28;20029;-89
2021/04/16 00:57:56;;;;;;;0.45;0.45;;;3.70;94.00;;;;;;5003451;28;20408;-89
2021/04/16 01:00:24;;;;;;;0.10;0.10;;;3.60;94.70;;;;;;4996916;28;20068;-89
2021/04/16 01:02:50;;;;;;;0.20;0.20;;;3.50;94.30;;;;;;5010279;28;20030;-89
2021/04/16 01:05:16;;;;;;;0.10;0.10;;;3.50;94.70;;;;;;5000868;28;20784;-89
2021/04/16 01:07:42;;;;;;;0.17;0.17;;;3.60;94.40;;;;;;5006782;28;20662;-89
2021/04/16 01:10:08;;;;;;;0.55;0.55;;;3.60;94.30;;;;;;5007875;28;20490;-89
2021/04/16 01:12:34;;;;;;;0.50;0.50;;;3.60;94.60;;;;;;5001813;28;20049;-88
2021/04/16 01:15:15;;;;;;;0.10;0.10;;;3.40;94.80;;;;;;5008943;28;20273;-88
2021/04/16 01:17:42;;;;;;;0.47;0.47;;;3.40;94.80;;;;;;4991143;28;20040;-88
2021/04/16 01:20:16;;;;;;;1.23;0.57;;;3.40;95.10;;;;;;4993862;28;20029;-88
2021/04/16 01:23:12;;;;;;;0.10;0.10;;;3.40;95.00;;;;;;4998775;28;20058;-89
2021/04/16 01:25:40;;;;;;;0.32;0.32;;;3.30;95.50;;;;;;4997971;28;20496;-88
2021/04/16 01:28:06;;;;;;;0.10;0.10;;;3.40;95.40;;;;;;4996885;28;20516;-89
2021/04/16 01:30:32;;;;;;;0.10;0.10;;;3.30;95.60;;;;;;5000011;28;20034;-88
2021/04/16 01:32:59;;;;;;;1.65;0.95;;;3.50;95.30;;;;;;4997936;28;20534;-88
2021/04/16 01:35:29;;;;;;;0.90;0.57;;;3.40;95.50;;;;;;5010867;28;20791;-89
2021/04/16 01:37:55;;;;;;;0.17;0.17;;;3.40;95.50;;;;;;5010343;28;20107;-89
2021/04/16 01:40:22;;;;;;;0.10;0.10;;;3.40;95.50;;;;;;5011671;28;20080;-89
2021/04/16 01:42:49;;;;;;;0.20;0.20;;;3.30;95.70;;;;;;5007806;28;20069;-89
2021/04/16 01:45:18;;;;;;;0.10;0.10;;;3.40;95.50;;;;;;5006034;28;20100;-89
2021/04/16 01:47:44;;;;;;;0.22;0.22;;;3.40;95.90;;;;;;5008656;28;20495;-88
2021/04/16 01:50:10;;;;;;;0.30;0.30;;;3.30;95.70;;;;;;5025667;28;20030;-89
2021/04/16 01:52:37;;;;;;;0.25;0.25;;;3.30;95.70;;;;;;4993780;28;20503;-90
2021/04/16 01:55:05;;;;;;;0.10;0.10;;;3.20;96.10;;;;;;5000591;28;20030;-91
2021/04/16 01:57:34;;;;;;;0.10;0.10;;;3.30;95.90;;;;;;5001219;28;20069;-90
2021/04/16 02:00:05;;;;;;;3.58;0.50;;;3.30;96.10;;;;;;4994001;28;20033;-90
2021/04/16 02:02:34;;;;;;;0.10;0.10;;;3.30;96.00;;;;;;5006673;28;20145;-90
2021/04/16 02:05:00;;;;;;;0.13;0.13;;;3.20;95.90;;;;;;5009434;28;20037;-89
2021/04/16 02:07:27;;;;;;;0.30;0.30;;;3.20;96.20;;;;;;5000295;28;20037;-89
2021/04/16 02:09:53;;;;;;;0.10;0.10;;;3.10;96.40;;;;;;4997798;28;20092;-89
2021/04/16 02:12:21;;;;;;;0.63;0.63;;;3.10;96.70;;;;;;5003377;28;20434;-89
2021/04/16 02:14:47;;;;;;;;;;;3.10;96.90;;;;;;5002703;28;20088;-89
2021/04/16 02:17:16;;;;;;;0.10;0.10;;;3.10;96.70;;;;;;5003463;28;19929;-89
2021/04/16 02:19:42;;;;;;;0.15;0.15;;;3.20;96.80;;;;;;5003710;28;20031;-90
2021/04/16 02:22:14;;;;;;;0.10;0.10;;;3.20;96.40;;;;;;5008019;28;20037;-90
2021/04/16 02:24:41;;;;;;;1.65;0.65;;;3.20;96.40;;;;;;5012378;28;20057;-89
2021/04/16 02:27:07;;;;;;;0.25;0.25;;;3.10;96.60;;;;;;5002025;28;20065;-88
2021/04/16 02:29:33;;;;;;;0.10;0.10;;;3.10;96.60;;;;;;5004697;28;20049;-88
2021/04/16 02:31:59;;;;;;;0.45;0.45;;;3.10;96.90;;;;;;4995181;28;20048;-88
2021/04/16 02:34:27;;;;;;;1.38;0.43;;;3.10;96.70;;;;;;5015990;28;20030;-88
2021/04/16 02:37:00;;;;;;;0.57;0.52;;;3.00;97.10;;;;;;5026077;28;20764;-88
2021/04/16 02:39:26;;;;;;;0.40;0.40;;;3.20;96.90;;;;;;5000897;28;20042;-88
2021/04/16 02:41:52;;;;;;;0.10;0.10;;;3.10;96.90;;;;;;4997937;28;20487;-88
2021/04/16 02:44:19;;;;;;;0.47;0.47;;;3.00;97.00;;;;;;5000319;28;20059;-88
2021/04/16 02:46:46;;;;;;;0.10;0.10;;;3.00;97.00;;;;;;5003543;28;20030;-88
2021/04/16 02:49:12;;;;;;;0.10;0.10;;;2.90;97.60;;;;;;5005146;28;20034;-89
2021/04/16 02:51:38;;;;;;;0.10;0.10;;;3.00;97.10;;;;;;5000784;28;20037;-87
2021/04/16 02:54:05;;;;;;;1.27;0.85;;;3.00;97.70;;;;;;5010954;28;20116;-88
2021/04/16 02:56:31;;;;;;;0.10;0.10;;;3.00;97.40;;;;;;4998727;28;20100;-87
2021/04/16 02:58:57;;;;;;;0.10;0.10;;;3.00;97.40;;;;;;5001886;28;20034;-88
2021/04/16 03:01:25;;;;;;;0.20;0.20;;;2.90;97.50;;;;;;4998460;28;20037;-89
2021/04/16 03:03:50;;;;;;;;;;;2.80;98.10;;;;;;4999446;28;20592;-88
2021/04/16 03:06:16;;;;;;;1.30;0.40;;;2.90;97.50;;;;;;5007121;28;19952;-88
2021/04/16 03:08:42;;;;;;;0.20;0.20;;;2.70;97.80;;;;;;5002953;28;20059;-88
2021/04/16 03:11:10;;;;;;;0.10;0.10;;;2.70;98.30;;;;;;4992989;28;20038;-88
2021/04/16 03:13:36;;;;;;;4.38;0.63;;;2.60;98.20;;;;;;4997610;28;20033;-88
2021/04/16 03:16:03;;;;;;;0.28;0.28;;;2.70;98.10;;;;;;4992900;28;20034;-88
2021/04/16 03:18:28;;;;;;;0.10;0.10;;;2.70;98.20;;;;;;4996722;28;20072;-88
2021/04/16 03:20:54;;;;;;;0.10;0.10;;;2.70;99.90;;;;;;5005418;28;20027;-87
2021/04/16 03:23:20;;;;;;;0.10;0.10;;;2.60;98.20;;;;;;4999864;28;20062;-87
2021/04/16 03:25:46;;;;;;;0.30;0.30;;;2.60;98.50;;;;;;5001742;28;20026;-88
2021/04/16 03:28:12;;;;;;;0.10;0.10;;;2.60;98.50;;;;;;5014556;28;20022;-90
2021/04/16 03:30:38;;;;;;;0.10;0.10;;;2.70;98.70;;;;;;4992654;28;20045;-89
2021/04/16 03:33:05;;;;;;;0.10;0.10;;;2.50;98.90;;;;;;5007841;28;20053;-90
2021/04/16 03:35:31;;;;;;;2.60;1.10;;;2.70;98.40;;;;;;5002611;28;20135;-89
2021/04/16 03:37:57;;;;;;;0.10;0.10;;;2.70;98.40;;;;;;5004268;28;20030;-89
2021/04/16 03:40:30;;;;;;;0.10;0.10;;;2.70;98.80;;;;;;4993474;28;20030;-90
2021/04/16 03:42:56;;;;;;;0.20;0.20;;;2.70;98.60;;;;;;4999792;28;20050;-90
2021/04/16 03:45:23;;;;;;;0.50;0.50;;;2.60;98.70;;;;;;5012038;28;20069;-89
2021/04/16 03:47:49;;;;;;;0.10;0.10;;;2.70;98.80;;;;;;4995761;28;20030;-90
2021/04/16 03:50:18;;;;;;;0.70;0.60;;;2.80;98.60;;;;;;4994854;28;20049;-89
2021/04/16 03:52:44;;;;;;;1.00;0.88;;;2.70;98.60;;;;;;4998901;28;20033;-89
2021/04/16 03:55:11;;;;;;;0.10;0.10;;;2.70;99.00;;;;;;5018145;28;20034;-90
2021/04/16 03:57:37;;;;;;;0.10;0.10;;;2.40;99.20;;;;;;5002849;28;20034;-89
2021/04/16 04:00:05;;;;;;;0.32;0.32;;;2.40;99.10;;;;;;4993137;28;20034;-91
2021/04/16 04:02:31;;;;;;;0.30;0.30;;;2.60;99.20;;;;;;5007875;28;20022;-90
2021/04/16 04:04:57;;;;;;;2.30;1.45;;;2.50;99.20;;;;;;5006906;28;20040;-90
2021/04/16 04:07:23;;;;;;;0.30;0.30;;;2.40;99.40;;;;;;5005524;28;20021;-89
2021/04/16 04:09:48;;;;;;;0.10;0.10;;;2.70;99.20;;;;;;5000822;28;20044;-89
2021/04/16 04:12:14;;;;;;;0.38;0.38;;;2.60;99.30;;;;;;5008024;28;20135;-88
2021/04/16 04:14:40;;;;;;;0.20;0.20;;;2.60;99.20;;;;;;5003483;28;20387;-89
2021/04/16 04:17:07;;;;;;;0.57;0.57;;;2.50;99.20;;;;;;4997767;28;20041;-90
2021/04/16 04:19:34;;;;;;;0.10;0.10;;;2.60;99.30;;;;;;4994903;28;20101;-88
2021/04/16 04:22:01;;;;;;;0.10;0.10;;;2.50;99.50;;;;;;5007530;28;20122;-89
2021/04/16 04:24:28;;;;;;;0.40;0.40;;;2.50;99.90;;;;;;4999530;28;20136;-88
2021/04/16 04:26:55;;;;;;;0.10;0.10;;;2.50;99.70;;;;;;4999167;28;20060;-91
2021/04/16 04:29:23;;;;;;;0.10;0.10;;;2.50;99.50;;;;;;4998579;28;20042;-90
2021/04/16 04:31:50;;;;;;;0.20;0.20;;;2.50;99.80;;;;;;5021751;28;20057;-89
2021/04/16 04:34:28;;;;;;;0.20;0.20;;;2.60;99.60;;;;;;5003659;28;20030;-88
2021/04/16 04:36:57;;;;;;;0.25;0.25;;;2.40;99.90;;;;;;5002737;28;20034;-89
2021/04/16 04:39:29;;;;;;;0.10;0.10;;;2.50;99.90;;;;;;5004224;28;20030;-89
2021/04/16 04:41:56;;;;;;;0.10;0.10;;;2.50;99.90;;;;;;5006480;28;20054;-87
2021/04/16 04:44:22;;;;;;;0.20;0.20;;;2.30;99.90;;;;;;4992278;28;20109;-88
2021/04/16 04:46:47;;;;;;;0.10;0.10;;;2.40;99.90;;;;;;4996998;28;20096;-88
2021/04/16 04:49:16;;;;;;;0.10;0.10;;;2.30;99.90;;;;;;4995143;28;20022;-87
2021/04/16 04:51:42;;;;;;;0.10;0.10;;;2.30;99.90;;;;;;5006104;28;20034;-89
2021/04/16 04:54:15;;;;;;;0.10;0.10;;;2.30;99.90;;;;;;5003037;28;20033;-89
2021/04/16 04:56:42;;;;;;;0.10;0.10;;;2.10;99.90;;;;;;5012036;28;20038;-89
2021/04/16 04:59:08;;;;;;;;;;;2.20;99.90;;;;;;5006584;28;20394;-89
2021/04/16 05:01:34;;;;;;;0.63;0.63;;;2.20;99.90;;;;;;5011043;28;19910;-90
2021/04/16 05:04:00;;;;;;;0.10;0.10;;;2.20;99.90;;;;;;5000417;28;20113;-89
2021/04/16 05:06:26;;;;;;;0.10;0.10;;;2.30;99.90;;;;;;4997735;28;20273;-89
2021/04/16 05:08:52;;;;;;;0.10;0.10;;;2.30;99.90;;;;;;4992926;28;20034;-89
2021/04/16 05:11:20;;;;;;;0.10;0.10;;;2.20;99.90;;;;;;5002204;28;20045;-90
2021/04/16 05:13:53;;;;;;;0.10;0.10;;;2.20;99.90;;;;;;4995009;28;20027;-88
2021/04/16 05:16:18;;;;;;;1.30;0.52;;;2.20;99.90;;;;;;5000087;28;20109;-86
2021/04/16 05:18:44;;;;;;;0.10;0.10;;;2.40;99.90;;;;;;5017464;28;20856;-86
2021/04/16 05:21:11;;;;;;;0.10;0.10;;;2.50;99.90;;;;;;4992472;28;20122;-88
2021/04/16 05:23:47;;;;;;;0.50;0.50;;;2.80;99.90;;;;;;5001013;28;20023;-88
2021/04/16 05:26:16;;;;;;;0.43;0.43;;;2.70;99.90;;;;;;5003526;28;20073;-88
2021/04/16 05:28:42;;;;;;;0.10;0.10;;;2.70;99.90;;;;;;5006724;28;20034;-89
2021/04/16 05:31:08;;;;;;;0.17;0.17;;;2.80;99.90;;;;;;5003585;28;20486;-91
2021/04/16 05:33:34;;;;;;;0.13;0.13;;;3.10;99.90;;;;;;5013849;28;20065;-88
2021/04/16 05:36:00;;;;;;;0.55;0.55;;;3.50;99.90;;;;;;5007908;28;20464;-89
2021/04/16 05:38:25;;;;;;;2.08;0.32;;;3.80;99.90;;;;;;5002205;28;20109;-93
2021/04/16 05:40:51;;;;;;;0.10;0.10;;;3.90;99.90;;;;;;4996698;28;20467;-92
2021/04/16 05:43:17;;;;;;;0.20;0.20;;;4.00;99.90;;;;;;4991064;28;20027;-90
2021/04/16 05:45:43;;;;;;;0.10;0.10;;;4.10;99.90;;;;;;4988475;28;20121;-87
2021/04/16 05:48:09;;;;;;;0.32;0.32;;;4.40;99.90;;;;;;4987931;28;20517;-86
2021/04/16 05:50:35;;;;;;;0.13;0.13;;;4.50;99.90;;;;;;4989462;28;20030;-87
2021/04/16 05:53:02;;;;;;;0.10;0.10;;;4.60;99.90;;;;;;4998468;28;20030;-87
2021/04/16 05:55:29;;;;;;;0.10;0.10;;;4.60;99.90;;;;;;5007987;28;20033;-86
2021/04/16 05:57:55;;;;;;;0.10;0.10;;;5.00;99.80;;;;;;5008897;28;20644;-87
2021/04/16 06:00:21;;;;;;;0.25;0.25;;;5.10;99.60;;;;;;5001679;28;20038;-87
2021/04/16 06:02:48;;;;;;;0.10;0.10;;;5.20;99.90;;;;;;5009139;28;20030;-86
2021/04/16 06:05:18;;;;;;;0.10;0.10;;;5.60;99.10;;;;;;5009152;28;20034;-86
2021/04/16 06:07:44;;;;;;;1.45;0.95;;;5.40;99.20;;;;;;5008439;28;20026;-86
2021/04/16 06:10:11;;;;;;;0.20;0.20;;;5.60;99.30;;;;;;5008695;28;20042;-86
2021/04/16 06:12:38;;;;;;;0.10;0.10;;;5.60;99.00;;;;;;5007520;28;20029;-87
2021/04/16 06:15:10;;;;;;;0.10;0.10;;;6.00;99.10;;;;;;5008900;28;20022;-87
2021/04/16 06:17:37;;;;;;;0.55;0.55;;;5.80;98.60;;;;;;5010014;28;20030;-87
2021/04/16 06:20:04;;;;;;;0.10;0.10;;;5.90;98.50;;;;;;5012359;28;20100;-88
2021/04/16 06:22:30;;;;;;;3.22;0.70;;;6.10;98.70;;;;;;5011843;28;20038;-87
2021/04/16 06:24:56;;;;;;;0.10;0.10;;;6.20;98.80;;;;;;5013385;28;20394;-87
2021/04/16 06:27:22;;;;;;;0.10;0.10;;;6.60;97.70;;;;;;5012412;28;20030;-87
2021/04/16 06:29:48;;;;;;;0.03;0.03;;;6.70;97.70;;;;;;5012475;28;20034;-87
2021/04/16 06:32:15;;;;;;;0.00;0.00;;;6.90;97.50;;;;;;5010465;28;20036;-87
2021/04/16 06:34:42;;;;;;;0.10;0.10;;;7.10;97.00;;;;;;4996703;28;20034;-86
2021/04/16 06:37:08;;;;;;;0.38;0.20;;;7.20;96.80;;;;;;5007597;28;20383;-87
2021/04/16 06:39:35;;;;;;;0.22;0.22;;;7.10;96.70;;;;;;4992170;28;20048;-87
2021/04/16 06:42:04;;;;;;;0.10;0.10;;;7.60;96.40;;;;;;4992576;28;20019;-88
2021/04/16 06:44:33;;;;;;;0.03;0.03;;;7.80;96.10;;;;;;4992794;28;20026;-88
2021/04/16 06:47:09;;;;;;;0.00;0.00;;;8.00;96.30;;;;;;5008845;28;20398;-88
2021/04/16 06:49:37;;;;;;;0.22;0.22;;;7.80;96.20;;;;;;4993453;28;20030;-89
2021/04/16 06:52:23;;;;;;;0.10;0.10;;;8.40;95.10;;;;;;5003703;28;20477;-89
2021/04/16 06:55:05;;;;;;;0.00;0.00;;;8.80;94.20;;;;;;5029421;28;20026;-89
2021/04/16 06:58:05;;;;;;;0.28;0.28;;;9.50;93.10;;;;;;4998220;28;20026;-89
2021/04/16 07:00:40;;;;;;;0.10;0.10;;;9.00;94.40;;;;;;4992941;28;20026;-89
2021/04/16 07:03:10;;;;;;;0.20;0.20;;;9.10;93.30;;;;;;5008963;28;20026;-90
2021/04/16 07:05:46;;;;;;;0.30;0.30;;;9.60;93.60;;;;;;5025358;28;20041;-90
2021/04/16 07:08:40;;;;;;;0.13;0.13;;;9.90;93.50;;;;;;5013906;28;20041;-89
2021/04/16 07:11:20;;;;;;;0.15;0.15;;;10.20;92.20;;;;;;4985200;28;20038;-88
2021/04/16 07:13:46;;;;;;;0.32;0.28;;;10.30;92.20;;;;;;4991146;28;20076;-87
2021/04/16 07:16:12;;;;;;;0.47;0.47;;;11.20;91.40;;;;;;5007595;28;20034;-89
2021/04/16 07:18:43;;;;;;;0.22;0.22;;;11.40;90.50;;;;;;4991750;28;20403;-87
2021/04/16 07:21:14;;;;;;;0.40;0.40;;;11.10;90.80;;;;;;4991750;28;20050;-91
2021/04/16 07:24:01;;;;;;;0.20;0.20;;;12.80;88.10;;;;;;5006065;28;20501;-91
2021/04/16 07:26:41;;;;;;;2.08;0.60;;;11.00;90.20;;;;;;5011092;28;20026;-93
2021/04/16 07:29:09;;;;;;;0.22;0.22;;;10.70;91.50;;;;;;5010774;28;20045;-93
2021/04/16 07:31:49;;;;;;;0.13;0.13;;;11.00;90.90;;;;;;5011317;28;20030;-90
2021/04/16 07:34:30;;;;;;;0.10;0.10;;;11.90;89.80;;;;;;5003812;28;20478;-87
2021/04/16 07:37:01;;;;;;;0.75;0.75;;;12.80;87.00;;;;;;5027394;28;20033;-90
2021/04/16 07:39:32;;;;;;;0.20;0.20;;;12.30;85.80;;;;;;5027185;28;20037;-89
2021/04/16 07:42:10;;;;;;;0.52;0.47;;;12.50;88.00;;;;;;5013166;28;20030;-91
2021/04/16 07:44:42;;;;;;;0.50;0.50;;;12.10;88.10;;;;;;5029040;28;20402;-90
2021/04/16 07:47:15;;;;;;;0.52;0.20;;;11.40;89.30;;;;;;5012422;28;20072;-90
2021/04/16 07:49:59;;;;;;;0.10;0.10;;;12.60;86.00;;;;;;5006082;28;20084;-90
2021/04/16 07:52:33;;;;;;;0.52;0.52;;;12.40;86.80;;;;;;5022614;28;20045;-90
2021/04/16 07:55:13;;;;;;;0.20;0.20;;;12.80;85.50;;;;;;5011181;28;20121;-89
2021/04/16 07:57:58;;;;;;;0.30;0.30;;;13.40;84.60;;;;;;5027574;28;20036;-89
2021/04/16 08:00:29;;;;;;;0.10;0.10;;;14.10;82.10;;;;;;5012420;28;20452;-89
2021/04/16 08:03:17;;;;;;;0.15;0.15;;;14.50;80.80;;;;;;5010101;28;20026;-89
2021/04/16 08:05:51;;;;;;;0.10;0.10;;;16.70;70.30;;;;;;5008210;28;20069;-89
2021/04/16 08:08:25;;;;;;;0.50;0.50;;;15.60;75.50;;;;;;5011547;28;20033;-89
2021/04/16 08:10:59;;;;;;;0.30;0.30;;;15.20;75.00;;;;;;4993673;28;20101;-89
2021/04/16 08:13:27;;;;;;;0.05;0.05;;;15.20;76.60;;;;;;5010104;28;20026;-87
2021/04/16 08:15:54;;;;;;;0.20;0.20;;;16.60;73.80;;;;;;5008556;28;20025;-91
2021/04/16 08:18:27;;;;;;;0.25;0.25;;;17.30;68.10;;;;;;5003614;28;20022;-91
2021/04/16 08:20:58;;;;;;;0.08;0.08;;;16.80;69.00;;;;;;5009319;28;20045;-91
2021/04/16 08:23:30;;;;;;;0.30;0.30;;;16.50;71.10;;;;;;5010839;28;20096;-89
2021/04/16 08:25:57;;;;;;;0.17;0.17;;;16.50;69.50;;;;;;4999887;28;20032;-88
2021/04/16 08:28:35;;;;;;;0.30;0.30;;;17.70;67.60;;;;;;5006023;28;20068;-93
2021/04/16 08:31:26;;;;;;;0.03;0.03;;;16.30;67.40;;;;;;5002669;28;20057;-92
2021/04/16 08:34:08;;;;;;;0.38;0.35;;;15.40;70.00;;;;;;5003041;28;20034;-90
2021/04/16 08:36:42;;;;;;;1.08;0.95;;;16.10;69.30;;;;;;5002084;28;20034;-90
2021/04/16 08:39:32;;;;;;;0.50;0.50;;;17.40;68.00;;;;;;5006462;28;20030;-89
2021/04/16 08:42:13;;;;;;;0.30;0.30;;;16.70;67.90;;;;;;5005535;28;20025;-90
2021/04/16 08:44:53;;;;;;;0.45;0.45;;;17.30;63.50;;;;;;5008450;28;20018;-89
2021/04/16 08:47:30;;;;;;;0.20;0.20;;;16.90;66.90;;;;;;4996864;28;20040;-91
2021/04/16 08:49:58;;;;;;;0.45;0.45;;;16.40;69.40;;;;;;5011739;28;20048;-90
2021/04/16 08:52:37;;;;;;;0.22;0.22;;;16.60;63.30;;;;;;5004000;28;20028;-90
2021/04/16 08:55:21;;;;;;;0.20;0.10;;;15.30;70.70;;;;;;5010256;28;20502;-92
2021/04/16 08:58:01;;;;;;;0.10;0.10;;;17.50;65.30;;;;;;5022356;28;20040;-91
2021/04/16 09:00:44;;;;;;;0.20;0.20;;;16.30;70.10;;;;;;5003948;28;20068;-90
2021/04/16 09:03:17;;;;;;;0.05;0.05;;;16.00;66.70;;;;;;5005767;28;20038;-90
2021/04/16 09:05:59;;;;;;;0.17;0.17;;;17.10;65.20;;;;;;5007253;28;20144;-90
2021/04/16 09:08:45;;;;;;;1.00;0.47;;;16.80;76.40;;;;;;5007586;28;20030;-93
2021/04/16 09:11:13;;;;;;;0.15;0.15;;;18.40;61.70;;;;;;5001401;28;20057;-89
2021/04/16 09:13:39;;;;;;;0.90;0.90;;;18.70;61.10;;;;;;5001704;28;20030;-88
2021/04/16 09:16:19;;;;;;;0.13;0.13;;;18.40;60.50;;;;;;5003669;28;20032;-90
2021/04/16 09:18:49;;;;;;;0.32;0.32;;;17.90;61.30;;;;;;5003741;28;20092;-91
2021/04/16 09:21:44;;;;;;;0.15;0.15;;;16.80;64.40;;;;;;5003184;28;20057;-89
2021/04/16 09:24:12;;;;;;;1.38;0.93;;;17.60;61.60;;;;;;5004709;28;20502;-87
2021/04/16 09:26:44;;;;;;;0.35;0.30;;;17.00;59.70;;;;;;4999212;28;20454;-87
2021/04/16 09:29:28;;;;;;;0.40;0.40;;;15.70;63.70;;;;;;4993756;28;20107;-83
2021/04/16 09:32:01;;;;;;;0.63;0.63;;;17.00;62.20;;;;;;4997398;28;20042;-82
2021/04/16 09:34:50;;;;;;;0.15;0.15;;;16.30;63.50;;;;;;5000425;28;20022;-83
2021/04/16 09:37:36;;;;;;;0.30;0.30;;;16.20;64.60;;;;;;4997260;28;20088;-86
2021/04/16 09:40:26;;;;;;;0.28;0.28;;;17.60;60.70;;;;;;4999942;28;20038;-89
2021/04/16 09:43:21;;;;;;;0.20;0.20;;;16.90;60.50;;;;;;4997911;28;20510;-88
2021/04/16 09:45:54;;;;;;;0.32;0.30;;;16.80;60.40;;;;;;4998482;28;20097;-84
2021/04/16 09:48:20;;;;;;;0.98;0.63;;;16.20;62.40;;;;;;4997665;28;20030;-85
2021/04/16 09:50:47;;;;;;;0.10;0.10;;;15.50;59.40;;;;;;5000425;28;20042;-88
2021/04/16 09:53:26;;;;;;;0.32;0.28;;;15.90;62.90;;;;;;5013993;28;20067;-87
2021/04/16 09:55:56;;;;;;;0.30;0.30;;;14.80;62.00;;;;;;5003134;28;20065;-85
2021/04/16 09:59:06;;;;;;;0.35;0.35;;;16.60;59.30;;;;;;5017757;28;20173;-86
2021/04/16 10:01:32;;;;;;;0.28;0.28;;;16.00;62.30;;;;;;4996567;28;20032;-84
2021/04/16 10:04:07;;;;;;;0.30;0.30;;;18.10;54.10;;;;;;4996230;28;20030;-85
2021/04/16 10:06:39;;;;;;;0.10;0.10;;;16.30;59.30;;;;;;4996634;28;20478;-82
2021/04/16 10:09:18;;;;;;;0.40;0.40;;;16.60;59.20;;;;;;4999626;28;20019;-87
2021/04/16 10:12:16;;;;;;;0.20;0.20;;;17.30;58.30;;;;;;5019623;28;20034;-87
2021/04/16 10:14:42;;;;;;;0.10;0.10;;;16.60;60.80;;;;;;5001731;28;20037;-85
2021/04/16 10:17:17;;;;;;;0.20;0.20;;;19.30;51.30;;;;;;4996958;28;20691;-84
2021/04/16 10:19:52;;;;;;;0.20;0.20;;;17.00;55.80;;;;;;4997819;28;20026;-85
2021/04/16 10:22:21;;;;;;;5.65;0.50;;;17.50;57.10;;;;;;5001709;28;20072;-85
2021/04/16 10:29:01;;;;;;;0.10;0.10;;;17.60;57.50;;;;;;5002112;28;20023;-86
2021/04/16 12:41:21;;;;;;;0.00;0.00;;;12.40;61.90;;;;;;4999065;28;20385;-84
2021/04/16 12:43:49;;;;;;;0.10;0.10;;;11.70;62.80;;;;;;5001314;28;20057;-85
2021/04/16 12:46:18;;;;;;;0.10;0.10;;;12.00;61.60;;;;;;4991493;28;20030;-85
2021/04/16 12:48:44;;;;;;;0.00;0.00;;;12.90;60.70;;;;;;4993242;28;20113;-84
2021/04/16 12:51:12;;;;;;;0.67;0.20;;;12.10;61.20;;;;;;4997306;28;20026;-84
2021/04/16 12:53:38;;;;;;;0.08;0.08;;;12.40;60.70;;;;;;4996574;28;20269;-85
2021/04/16 12:56:07;;;;;;;0.17;0.17;;;12.20;61.70;;;;;;5004959;28;20026;-85
2021/04/16 12:58:38;;;;;;;0.10;0.10;;;12.00;61.20;;;;;;5003465;28;20034;-83
2021/04/16 13:01:12;;;;;;;0.38;0.38;;;12.00;61.60;;;;;;5002838;28;20026;-86
2021/04/16 13:03:42;;;;;;;1.17;0.30;;;12.00;60.50;;;;;;5001621;28;20072;-86
2021/04/16 13:06:37;;;;;;;0.00;0.00;;;11.80;62.60;;;;;;5005891;28;20034;-85
2021/04/16 13:09:05;;;;;;;0.80;0.20;;;12.20;62.00;;;;;;5003516;28;20080;-84
2021/04/16 13:11:31;;;;;;;0.20;0.20;;;12.40;59.50;;;;;;5006132;28;20158;-86
2021/04/16 13:13:57;;;;;;;0.00;0.00;;;12.40;60.00;;;;;;5015613;28;20029;-86
2021/04/16 13:16:24;;;;;;;0.28;0.20;;;12.60;59.50;;;;;;4998464;28;20030;-86
2021/04/16 13:18:55;;;;;;;0.28;0.25;;;12.80;59.10;;;;;;4998137;28;20022;-86
2021/04/16 13:21:30;;;;;;;0.25;0.25;;;12.60;59.70;;;;;;5015153;28;20239;-84
2021/04/16 13:23:58;;;;;;;0.20;0.20;;;12.80;59.60;;;;;;4999481;28;20490;-86
2021/04/16 13:26:26;;;;;;;0.10;0.10;;;12.70;59.10;;;;;;4998805;28;20022;-86
2021/04/16 13:28:53;;;;;;;0.65;0.30;;;12.60;59.80;;;;;;5004996;28;20022;-85
2021/04/16 13:31:27;;;;;;;1.48;0.82;;;12.40;61.20;;;;;;5006821;28;20037;-85
2021/04/16 13:33:54;;;;;;;0.10;0.10;;;12.40;61.10;;;;;;5002297;28;20509;-86
2021/04/16 13:36:27;;;;;;;0.10;0.10;;;12.60;60.80;;;;;;5003232;28;20122;-85
2021/04/16 13:38:53;;;;;;;0.10;0.10;;;12.60;60.30;;;;;;5007015;28;20026;-86
2021/04/16 13:41:20;;;;;;;1.00;0.63;;;12.50;59.50;;;;;;5008643;28;20478;-85
2021/04/16 13:43:50;;;;;;;0.00;0.00;;;13.10;57.80;;;;;;5005904;28;20018;-86
2021/04/16 13:46:20;;;;;;;0.10;0.10;;;13.30;58.30;;;;;;5020856;28;20034;-86
2021/04/16 13:48:48;;;;;;;0.10;0.10;;;13.10;57.90;;;;;;5000688;28;21016;-86
2021/04/16 13:51:16;;;;;;;0.00;0.00;;;12.40;60.60;;;;;;5006854;28;20033;-87
2021/04/16 13:53:44;;;;;;;0.10;0.10;;;12.30;59.70;;;;;;5005168;28;20022;-85
2021/04/16 13:56:13;;;;;;;0.00;0.00;;;12.00;60.60;;;;;;5004669;28;20056;-85
2021/04/16 13:58:39;;;;;;;0.28;0.28;;;11.80;61.40;;;;;;5005555;28;20027;-87
2021/04/16 14:01:11;;;;;;;0.20;0.20;;;11.40;62.40;;;;;;5004091;28;20503;-86
2021/04/16 14:03:43;;;;;;;0.38;0.38;;;11.50;62.10;;;;;;5002060;28;20026;-86
2021/04/16 14:06:22;;;;;;;0.10;0.10;;;11.70;62.40;;;;;;5008262;28;20168;-85
2021/04/16 14:08:54;;;;;;;0.05;0.05;;;11.60;61.80;;;;;;5019892;28;20023;-87
2021/04/16 14:11:21;;;;;;;0.17;0.17;;;11.80;62.20;;;;;;5002600;28;20125;-85
2021/04/16 14:13:48;;;;;;;0.05;0.05;;;11.90;61.40;;;;;;5005369;28;20034;-87
2021/04/16 14:16:34;;;;;;;0.43;0.38;;;11.90;62.50;;;;;;5001863;28;20524;-87
2021/04/16 14:19:06;;;;;;;0.07;0.07;;;11.80;62.70;;;;;;5004099;28;20791;-85
2021/04/16 14:21:38;;;;;;;0.10;0.10;;;12.00;63.40;;;;;;5002688;28;20050;-85
2021/04/16 14:24:09;;;;;;;0.45;0.45;;;12.40;61.50;;;;;;5006292;28;20026;-86
2021/04/16 14:26:35;;;;;;;0.35;0.32;;;12.40;60.10;;;;;;5004255;28;20455;-87
2021/04/16 14:29:02;;;;;;;0.55;0.55;;;11.90;60.80;;;;;;5007669;28;20030;-86
2021/04/16 14:31:28;;;;;;;;;;;11.90;61.50;;;;;;5005996;28;20167;-87
2021/04/16 14:33:54;;;;;;;0.10;0.10;;;12.30;60.70;;;;;;5020674;28;19952;-86
2021/04/16 14:36:19;;;;;;;0.10;0.10;;;12.30;60.10;;;;;;5021333;28;20085;-88
2021/04/16 14:38:45;;;;;;;0.05;0.05;;;11.90;60.80;;;;;;5003767;28;20034;-88
2021/04/16 14:41:16;;;;;;;0.68;0.68;;;11.70;62.60;;;;;;4999720;28;20026;-85
2021/04/16 14:43:42;;;;;;;0.00;0.00;;;11.40;62.60;;;;;;5002273;28;20501;-86
2021/04/16 14:46:08;;;;;;;0.30;0.10;;;11.30;62.50;;;;;;5000902;28;20031;-85
2021/04/16 14:48:34;;;;;;;0.00;0.00;;;11.30;62.80;;;;;;5002426;28;20056;-85
2021/04/16 14:51:07;;;;;;;0.10;0.10;;;11.50;62.60;;;;;;5000893;28;20629;-86
2021/04/16 14:53:47;;;;;;;0.15;0.15;;;11.70;62.00;;;;;;5016393;28;20038;-86
2021/04/16 14:56:16;;;;;;;0.35;0.20;;;11.80;61.40;;;;;;5004052;28;20049;-87
2021/04/16 14:59:13;;;;;;;0.00;0.00;;;12.40;60.50;;;;;;5006322;28;20066;-89
2021/04/16 15:01:39;;;;;;;0.22;0.20;;;12.60;59.50;;;;;;5004807;28;20038;-86
2021/04/16 15:04:05;;;;;;;0.05;0.05;;;11.90;61.50;;;;;;5004385;28;20023;-87
2021/04/16 15:06:31;;;;;;;0.05;0.05;;;11.80;62.30;;;;;;5006702;28;20018;-88
2021/04/16 15:09:05;;;;;;;0.10;0.10;;;11.80;62.20;;;;;;5004367;28;20037;-88
2021/04/16 15:11:42;;;;;;;0.52;0.40;;;11.90;63.10;;;;;;4999280;28;20042;-89
2021/04/16 15:14:15;;;;;;;0.10;0.10;;;11.40;63.60;;;;;;5001596;28;20485;-86
2021/04/16 15:16:51;;;;;;;0.10;0.10;;;11.30;63.30;;;;;;5004075;28;20029;-87
2021/04/16 15:19:36;;;;;;;0.13;0.13;;;11.30;63.00;;;;;;4998316;28;20038;-86
2021/04/16 15:22:09;;;;;;;0.00;0.00;;;11.10;64.10;;;;;;4997218;28;20054;-86
2021/04/16 15:24:40;;;;;;;0.30;0.30;;;11.30;64.30;;;;;;5003312;28;21536;-85